Arkdale, WI (54613)

1:36 PM CDT on May 22, 2015 (GMT -0500)
Necedah Township | | Change Station
CLOSE
Current Station
Personal Weather Station
Location: Necedah, WI
Elevation: 890 ft
Nearby Weather Stations

Elev 890 ft 44.00 °N, 89.99 °W | Updated 14 seconds ago

Clear
Clear
67.6 °F
Feels Like 67.6 °F
N
2.0
Wind Variable Wind from West
Gusts 6.7 mph

Today
High -- | Low -- °F
--% Chance of Precip.
Yesterday
High -- | Low -- °F
Precip. -- in
5:26 AM 8:26 PM
Waxing Crescent, 23% visible
Pressure 30.25 in
Visibility 10.0 miles
Clouds Clear
Dew Point 40 °F
Humidity 36%
Rainfall 0.00 in
Snow Depth Not available.
UV 11 out of 12
Pollen 8.90 out of 12
Air Quality Not available.
Flu Activity Sporadic
METAR KISW 221754Z AUTO VRB04KT 10SM CLR 19/M02 A3024 RMK AO2 SLP243 T01891022 10194 20078 53001

More Conditions Fewer Conditions

Pressure 30.25 in
Visibility 10.0 miles
Clouds Clear
Dew Point 40 °F
Humidity 36%
Rainfall 0.00 in
Snow Depth Not available.
UV 11 out of 12
Pollen 8.90 out of 12
Air Quality Not available.
Flu Activity Sporadic
METAR KISW 221754Z AUTO VRB04KT 10SM CLR 19/M02 A3024 RMK AO2 SLP243 T01891022 10194 20078 53001

More Conditions Fewer Conditions

10-Day Weather Forecast

Almanac

Astronomy

May. 22, 2015 Rise Set
Actual Time
Civil Twilight
Nautical Twilight
Astronomical Twilight
Moon
Length of Visible Light
Length of Day
Tomorrow will be .
, % of the Moon is Illuminated

Today's Extremes

State Highs State Lows

Community

WunderPhotos

Upload Photos

1,823,273 photos uploaded!

WunderBlogs® & News

Nearby

Air Quality

  Air Quality AQ Index Pollutant
Not available.

Snow Depth

Station Depth Elevation

Earthquake Activity

City Distance Mag. Time & Date
Minimum magnitude displayed is 2.5.

Coastal Water Temperatures

Place Temperature

Stations

Nearby Weather Stations

Station Location Temp. Windchill Dew Point Humidity Wind Precip. Elev Updated Type